sensor_id;sensor_type;location;lat;lon;timestamp;P1;durP1;ratioP1;P2;durP2;ratioP2
79687;SDS011;69155;49.464;2.108;2024-01-25T00:00:47;13.15;;;3.25;;
79687;SDS011;69155;49.464;2.108;2024-01-25T00:03:13;22.27;;;3.83;;
79687;SDS011;69155;49.464;2.108;2024-01-25T00:05:38;23.57;;;4.10;;
79687;SDS011;69155;49.464;2.108;2024-01-25T00:08:03;13.90;;;2.53;;
79687;SDS011;69155;49.464;2.108;2024-01-25T00:10:29;14.13;;;3.05;;
79687;SDS011;69155;49.464;2.108;2024-01-25T00:12:57;23.65;;;4.05;;
79687;SDS011;69155;49.464;2.108;2024-01-25T00:15:22;18.23;;;3.47;;
79687;SDS011;69155;49.464;2.108;2024-01-25T00:17:48;16.57;;;3.57;;
79687;SDS011;69155;49.464;2.108;2024-01-25T00:20:16;18.07;;;2.80;;
79687;SDS011;69155;49.464;2.108;2024-01-25T00:22:41;11.50;;;3.25;;
79687;SDS011;69155;49.464;2.108;2024-01-25T00:25:06;16.67;;;3.65;;
79687;SDS011;69155;49.464;2.108;2024-01-25T00:27:32;21.37;;;3.97;;
79687;SDS011;69155;49.464;2.108;2024-01-25T00:29:57;23.10;;;4.20;;
79687;SDS011;69155;49.464;2.108;2024-01-25T00:32:22;18.87;;;3.33;;
79687;SDS011;69155;49.464;2.108;2024-01-25T00:34:47;11.70;;;3.80;;
79687;SDS011;69155;49.464;2.108;2024-01-25T00:37:13;24.90;;;4.00;;
79687;SDS011;69155;49.464;2.108;2024-01-25T00:39:38;17.65;;;3.85;;
79687;SDS011;69155;49.464;2.108;2024-01-25T00:42:04;21.90;;;3.92;;
79687;SDS011;69155;49.464;2.108;2024-01-25T00:44:30;20.10;;;3.33;;
79687;SDS011;69155;49.464;2.108;2024-01-25T00:46:56;21.20;;;3.92;;
79687;SDS011;69155;49.464;2.108;2024-01-25T00:49:21;20.10;;;4.07;;
79687;SDS011;69155;49.464;2.108;2024-01-25T00:51:47;25.40;;;3.63;;
79687;SDS011;69155;49.464;2.108;2024-01-25T00:54:13;20.08;;;3.55;;
79687;SDS011;69155;49.464;2.108;2024-01-25T00:56:39;22.08;;;3.63;;
79687;SDS011;69155;49.464;2.108;2024-01-25T00:59:04;24.95;;;3.88;;
79687;SDS011;69155;49.464;2.108;2024-01-25T01:01:30;17.85;;;3.92;;
79687;SDS011;69155;49.464;2.108;2024-01-25T01:03:55;19.58;;;3.38;;
79687;SDS011;69155;49.464;2.108;2024-01-25T01:06:22;17.38;;;3.28;;
79687;SDS011;69155;49.464;2.108;2024-01-25T01:08:48;17.30;;;3.25;;
79687;SDS011;69155;49.464;2.108;2024-01-25T01:11:13;21.88;;;4.63;;
79687;SDS011;69155;49.464;2.108;2024-01-25T01:13:38;16.27;;;4.97;;
79687;SDS011;69155;49.464;2.108;2024-01-25T01:16:03;17.23;;;5.17;;
79687;SDS011;69155;49.464;2.108;2024-01-25T01:18:29;22.23;;;4.32;;
79687;SDS011;69155;49.464;2.108;2024-01-25T01:20:54;19.70;;;3.87;;
79687;SDS011;69155;49.464;2.108;2024-01-25T01:23:19;20.63;;;3.53;;
79687;SDS011;69155;49.464;2.108;2024-01-25T01:25:45;20.30;;;3.30;;
79687;SDS011;69155;49.464;2.108;2024-01-25T01:28:10;21.77;;;4.60;;
79687;SDS011;69155;49.464;2.108;2024-01-25T01:30:35;23.37;;;3.90;;
79687;SDS011;69155;49.464;2.108;2024-01-25T01:33:00;16.10;;;3.17;;
79687;SDS011;69155;49.464;2.108;2024-01-25T01:35:26;15.20;;;3.00;;
79687;SDS011;69155;49.464;2.108;2024-01-25T01:37:51;14.93;;;3.67;;
79687;SDS011;69155;49.464;2.108;2024-01-25T01:40:16;19.20;;;3.40;;
79687;SDS011;69155;49.464;2.108;2024-01-25T01:42:41;11.03;;;2.80;;
79687;SDS011;69155;49.464;2.108;2024-01-25T01:45:07;15.00;;;2.78;;
79687;SDS011;69155;49.464;2.108;2024-01-25T01:47:35;18.48;;;3.22;;
79687;SDS011;69155;49.464;2.108;2024-01-25T01:50:01;19.07;;;3.57;;
79687;SDS011;69155;49.464;2.108;2024-01-25T01:52:26;11.68;;;2.45;;
79687;SDS011;69155;49.464;2.108;2024-01-25T01:54:52;18.80;;;3.40;;
79687;SDS011;69155;49.464;2.108;2024-01-25T01:57:17;21.53;;;2.97;;
79687;SDS011;69155;49.464;2.108;2024-01-25T01:59:42;23.47;;;4.23;;
79687;SDS011;69155;49.464;2.108;2024-01-25T02:02:08;19.83;;;3.87;;
79687;SDS011;69155;49.464;2.108;2024-01-25T02:04:33;10.50;;;2.30;;
79687;SDS011;69155;49.464;2.108;2024-01-25T02:06:58;11.40;;;2.77;;
79687;SDS011;69155;49.464;2.108;2024-01-25T02:09:23;9.63;;;2.80;;
79687;SDS011;69155;49.464;2.108;2024-01-25T02:11:58;13.93;;;2.80;;
79687;SDS011;69155;49.464;2.108;2024-01-25T02:14:23;12.43;;;2.65;;
79687;SDS011;69155;49.464;2.108;2024-01-25T02:16:48;11.33;;;2.10;;
79687;SDS011;69155;49.464;2.108;2024-01-25T02:19:14;17.53;;;3.10;;
79687;SDS011;69155;49.464;2.108;2024-01-25T02:21:39;19.47;;;4.27;;
79687;SDS011;69155;49.464;2.108;2024-01-25T02:24:04;21.93;;;2.70;;
79687;SDS011;69155;49.464;2.108;2024-01-25T02:26:30;9.85;;;2.78;;
79687;SDS011;69155;49.464;2.108;2024-01-25T02:28:55;11.90;;;2.60;;
79687;SDS011;69155;49.464;2.108;2024-01-25T02:31:20;17.70;;;3.20;;
79687;SDS011;69155;49.464;2.108;2024-01-25T02:33:46;25.40;;;3.33;;
79687;SDS011;69155;49.464;2.108;2024-01-25T02:36:11;17.97;;;3.03;;
79687;SDS011;69155;49.464;2.108;2024-01-25T02:38:36;14.13;;;2.70;;
79687;SDS011;69155;49.464;2.108;2024-01-25T02:41:01;9.40;;;2.50;;
79687;SDS011;69155;49.464;2.108;2024-01-25T02:43:30;14.90;;;2.72;;
79687;SDS011;69155;49.464;2.108;2024-01-25T02:45:58;12.95;;;3.20;;
79687;SDS011;69155;49.464;2.108;2024-01-25T02:48:24;16.08;;;3.72;;
79687;SDS011;69155;49.464;2.108;2024-01-25T02:50:49;14.13;;;3.10;;
79687;SDS011;69155;49.464;2.108;2024-01-25T02:53:14;15.80;;;2.83;;
79687;SDS011;69155;49.464;2.108;2024-01-25T02:55:40;19.47;;;3.17;;
79687;SDS011;69155;49.464;2.108;2024-01-25T02:58:05;14.70;;;2.37;;
79687;SDS011;69155;49.464;2.108;2024-01-25T03:00:30;11.20;;;2.10;;
79687;SDS011;69155;49.464;2.108;2024-01-25T03:02:56;11.90;;;2.72;;
79687;SDS011;69155;49.464;2.108;2024-01-25T03:05:21;18.87;;;3.97;;
79687;SDS011;69155;49.464;2.108;2024-01-25T03:07:46;14.40;;;2.83;;
79687;SDS011;69155;49.464;2.108;2024-01-25T03:10:11;9.80;;;2.70;;
79687;SDS011;69155;49.464;2.108;2024-01-25T03:12:37;14.10;;;3.00;;
79687;SDS011;69155;49.464;2.108;2024-01-25T03:15:02;15.03;;;3.43;;
79687;SDS011;69155;49.464;2.108;2024-01-25T03:17:27;13.93;;;2.70;;
79687;SDS011;69155;49.464;2.108;2024-01-25T03:19:53;10.30;;;2.07;;
79687;SDS011;69155;49.464;2.108;2024-01-25T03:22:18;17.80;;;3.03;;
79687;SDS011;69155;49.464;2.108;2024-01-25T03:24:43;15.67;;;3.10;;
79687;SDS011;69155;49.464;2.108;2024-01-25T03:27:08;12.87;;;2.27;;
79687;SDS011;69155;49.464;2.108;2024-01-25T03:29:40;19.73;;;2.58;;
79687;SDS011;69155;49.464;2.108;2024-01-25T03:32:08;12.60;;;2.30;;
79687;SDS011;69155;49.464;2.108;2024-01-25T03:34:33;16.77;;;2.85;;
79687;SDS011;69155;49.464;2.108;2024-01-25T03:36:59;10.43;;;2.53;;
79687;SDS011;69155;49.464;2.108;2024-01-25T03:39:24;11.57;;;2.53;;
79687;SDS011;69155;49.464;2.108;2024-01-25T03:41:49;9.43;;;2.40;;
79687;SDS011;69155;49.464;2.108;2024-01-25T03:44:14;10.97;;;2.43;;
79687;SDS011;69155;49.464;2.108;2024-01-25T03:46:39;11.30;;;3.07;;
79687;SDS011;69155;49.464;2.108;2024-01-25T03:49:05;13.93;;;3.60;;
79687;SDS011;69155;49.464;2.108;2024-01-25T03:51:30;10.60;;;2.63;;
79687;SDS011;69155;49.464;2.108;2024-01-25T03:53:55;11.90;;;2.97;;
79687;SDS011;69155;49.464;2.108;2024-01-25T03:56:23;13.93;;;2.53;;
79687;SDS011;69155;49.464;2.108;2024-01-25T03:58:48;12.95;;;3.45;;
79687;SDS011;69155;49.464;2.108;2024-01-25T04:01:13;16.83;;;3.30;;
79687;SDS011;69155;49.464;2.108;2024-01-25T04:03:41;17.03;;;3.30;;
79687;SDS011;69155;49.464;2.108;2024-01-25T04:06:06;19.88;;;3.10;;
79687;SDS011;69155;49.464;2.108;2024-01-25T04:08:32;17.83;;;2.60;;
79687;SDS011;69155;49.464;2.108;2024-01-25T04:10:57;12.33;;;2.70;;
79687;SDS011;69155;49.464;2.108;2024-01-25T04:13:22;16.87;;;4.13;;
79687;SDS011;69155;49.464;2.108;2024-01-25T04:15:47;15.57;;;3.20;;
79687;SDS011;69155;49.464;2.108;2024-01-25T04:18:13;12.77;;;2.43;;
79687;SDS011;69155;49.464;2.108;2024-01-25T04:20:39;10.33;;;2.23;;
79687;SDS011;69155;49.464;2.108;2024-01-25T04:23:04;11.75;;;3.67;;
79687;SDS011;69155;49.464;2.108;2024-01-25T04:25:29;12.73;;;3.23;;
79687;SDS011;69155;49.464;2.108;2024-01-25T04:27:55;12.10;;;3.60;;
79687;SDS011;69155;49.464;2.108;2024-01-25T04:30:20;12.90;;;4.13;;
79687;SDS011;69155;49.464;2.108;2024-01-25T04:32:45;15.50;;;4.78;;
79687;SDS011;69155;49.464;2.108;2024-01-25T04:35:11;20.87;;;5.83;;
79687;SDS011;69155;49.464;2.108;2024-01-25T04:37:42;17.10;;;5.70;;
79687;SDS011;69155;49.464;2.108;2024-01-25T04:40:07;19.87;;;6.70;;
79687;SDS011;69155;49.464;2.108;2024-01-25T04:42:32;16.75;;;6.05;;
79687;SDS011;69155;49.464;2.108;2024-01-25T04:44:58;13.17;;;4.67;;
79687;SDS011;69155;49.464;2.108;2024-01-25T04:47:23;21.77;;;6.20;;
79687;SDS011;69155;49.464;2.108;2024-01-25T04:49:48;10.87;;;3.83;;
79687;SDS011;69155;49.464;2.108;2024-01-25T04:52:14;14.67;;;2.57;;
79687;SDS011;69155;49.464;2.108;2024-01-25T04:54:39;12.83;;;2.90;;
79687;SDS011;69155;49.464;2.108;2024-01-25T04:57:04;13.83;;;3.17;;
79687;SDS011;69155;49.464;2.108;2024-01-25T04:59:32;13.65;;;3.03;;
79687;SDS011;69155;49.464;2.108;2024-01-25T05:01:57;14.20;;;3.53;;
79687;SDS011;69155;49.464;2.108;2024-01-25T05:04:23;11.77;;;3.40;;
79687;SDS011;69155;49.464;2.108;2024-01-25T05:06:48;9.40;;;3.27;;
79687;SDS011;69155;49.464;2.108;2024-01-25T05:09:13;17.53;;;4.23;;
79687;SDS011;69155;49.464;2.108;2024-01-25T05:11:39;14.50;;;3.70;;
79687;SDS011;69155;49.464;2.108;2024-01-25T05:14:04;10.93;;;3.38;;
79687;SDS011;69155;49.464;2.108;2024-01-25T05:16:30;12.45;;;4.25;;
79687;SDS011;69155;49.464;2.108;2024-01-25T05:18:57;13.87;;;3.50;;
79687;SDS011;69155;49.464;2.108;2024-01-25T05:21:23;17.55;;;3.33;;
79687;SDS011;69155;49.464;2.108;2024-01-25T05:26:34;12.05;;;2.63;;
79687;SDS011;69155;49.464;2.108;2024-01-25T05:29:00;9.63;;;3.13;;
79687;SDS011;69155;49.464;2.108;2024-01-25T05:31:25;12.27;;;2.97;;
79687;SDS011;69155;49.464;2.108;2024-01-25T05:33:50;15.03;;;5.00;;
79687;SDS011;69155;49.464;2.108;2024-01-25T05:36:15;26.90;;;7.50;;
79687;SDS011;69155;49.464;2.108;2024-01-25T05:38:41;25.93;;;7.73;;
79687;SDS011;69155;49.464;2.108;2024-01-25T05:41:06;23.83;;;4.93;;
79687;SDS011;69155;49.464;2.108;2024-01-25T05:43:32;22.47;;;4.17;;
79687;SDS011;69155;49.464;2.108;2024-01-25T05:45:58;29.48;;;7.47;;
79687;SDS011;69155;49.464;2.108;2024-01-25T05:48:23;27.60;;;9.13;;
79687;SDS011;69155;49.464;2.108;2024-01-25T05:50:48;17.10;;;4.93;;
79687;SDS011;69155;49.464;2.108;2024-01-25T05:53:21;14.70;;;3.70;;
79687;SDS011;69155;49.464;2.108;2024-01-25T05:55:46;21.58;;;6.22;;
79687;SDS011;69155;49.464;2.108;2024-01-25T05:58:12;24.55;;;6.78;;
79687;SDS011;69155;49.464;2.108;2024-01-25T06:00:37;24.80;;;7.63;;
79687;SDS011;69155;49.464;2.108;2024-01-25T06:03:02;21.03;;;7.50;;
79687;SDS011;69155;49.464;2.108;2024-01-25T06:05:27;16.37;;;4.90;;
79687;SDS011;69155;49.464;2.108;2024-01-25T06:07:53;22.33;;;4.33;;
79687;SDS011;69155;49.464;2.108;2024-01-25T06:10:18;21.33;;;7.30;;
79687;SDS011;69155;49.464;2.108;2024-01-25T06:12:43;15.97;;;5.13;;
79687;SDS011;69155;49.464;2.108;2024-01-25T06:15:10;22.92;;;6.35;;
79687;SDS011;69155;49.464;2.108;2024-01-25T06:17:36;26.97;;;7.53;;
79687;SDS011;69155;49.464;2.108;2024-01-25T06:20:01;24.87;;;9.07;;
79687;SDS011;69155;49.464;2.108;2024-01-25T06:22:27;16.52;;;6.72;;
79687;SDS011;69155;49.464;2.108;2024-01-25T06:24:52;28.30;;;8.77;;
79687;SDS011;69155;49.464;2.108;2024-01-25T06:27:18;21.63;;;6.50;;
79687;SDS011;69155;49.464;2.108;2024-01-25T06:29:43;22.60;;;9.03;;
79687;SDS011;69155;49.464;2.108;2024-01-25T06:32:09;18.87;;;6.20;;
79687;SDS011;69155;49.464;2.108;2024-01-25T06:34:34;14.68;;;4.35;;
79687;SDS011;69155;49.464;2.108;2024-01-25T06:37:00;15.20;;;3.50;;
79687;SDS011;69155;49.464;2.108;2024-01-25T06:39:25;11.47;;;3.53;;
79687;SDS011;69155;49.464;2.108;2024-01-25T06:41:50;12.13;;;3.63;;
79687;SDS011;69155;49.464;2.108;2024-01-25T06:44:15;9.77;;;3.73;;
79687;SDS011;69155;49.464;2.108;2024-01-25T06:46:41;10.95;;;3.78;;
79687;SDS011;69155;49.464;2.108;2024-01-25T06:49:07;13.83;;;3.33;;
79687;SDS011;69155;49.464;2.108;2024-01-25T06:51:32;12.40;;;3.43;;
79687;SDS011;69155;49.464;2.108;2024-01-25T06:53:57;17.20;;;4.73;;
79687;SDS011;69155;49.464;2.108;2024-01-25T06:56:22;14.43;;;4.20;;
79687;SDS011;69155;49.464;2.108;2024-01-25T06:58:48;16.67;;;3.97;;
79687;SDS011;69155;49.464;2.108;2024-01-25T07:01:19;13.52;;;4.65;;
79687;SDS011;69155;49.464;2.108;2024-01-25T07:03:44;27.08;;;5.45;;
79687;SDS011;69155;49.464;2.108;2024-01-25T07:06:10;14.17;;;4.20;;
79687;SDS011;69155;49.464;2.108;2024-01-25T07:08:35;16.93;;;4.67;;
79687;SDS011;69155;49.464;2.108;2024-01-25T07:11:03;14.97;;;4.40;;
79687;SDS011;69155;49.464;2.108;2024-01-25T07:13:30;16.88;;;4.13;;
79687;SDS011;69155;49.464;2.108;2024-01-25T07:15:55;12.88;;;4.78;;
79687;SDS011;69155;49.464;2.108;2024-01-25T07:18:21;13.10;;;4.10;;
79687;SDS011;69155;49.464;2.108;2024-01-25T07:20:47;20.30;;;5.18;;
79687;SDS011;69155;49.464;2.108;2024-01-25T07:23:13;14.70;;;4.60;;
79687;SDS011;69155;49.464;2.108;2024-01-25T07:25:38;19.87;;;4.60;;
79687;SDS011;69155;49.464;2.108;2024-01-25T07:28:06;12.23;;;4.47;;
79687;SDS011;69155;49.464;2.108;2024-01-25T07:30:32;19.95;;;5.28;;
79687;SDS011;69155;49.464;2.108;2024-01-25T07:32:57;22.87;;;7.90;;
79687;SDS011;69155;49.464;2.108;2024-01-25T07:41:30;17.23;;;5.70;;
79687;SDS011;69155;49.464;2.108;2024-01-25T07:44:05;22.88;;;4.85;;
79687;SDS011;69155;49.464;2.108;2024-01-25T07:46:54;21.20;;;6.18;;
79687;SDS011;69155;49.464;2.108;2024-01-25T07:52:59;24.75;;;5.00;;
79687;SDS011;69155;49.464;2.108;2024-01-25T07:55:42;12.70;;;4.80;;
79687;SDS011;69155;49.464;2.108;2024-01-25T07:58:22;14.02;;;4.20;;
79687;SDS011;69155;49.464;2.108;2024-01-25T08:10:22;22.33;;;9.07;;
79687;SDS011;69155;49.464;2.108;2024-01-25T08:12:47;20.23;;;6.13;;
79687;SDS011;69155;49.464;2.108;2024-01-25T08:15:13;17.50;;;6.00;;
79687;SDS011;69155;49.464;2.108;2024-01-25T08:17:39;18.38;;;6.97;;
79687;SDS011;69155;49.464;2.108;2024-01-25T08:20:04;17.92;;;5.60;;
79687;SDS011;69155;49.464;2.108;2024-01-25T08:22:34;11.60;;;5.35;;
79687;SDS011;69155;49.464;2.108;2024-01-25T08:24:59;10.77;;;5.63;;
79687;SDS011;69155;49.464;2.108;2024-01-25T08:27:24;16.93;;;6.93;;
79687;SDS011;69155;49.464;2.108;2024-01-25T08:29:49;10.37;;;5.30;;
79687;SDS011;69155;49.464;2.108;2024-01-25T08:32:15;12.43;;;5.70;;
79687;SDS011;69155;49.464;2.108;2024-01-25T08:34:40;15.63;;;7.33;;
79687;SDS011;69155;49.464;2.108;2024-01-25T08:37:05;16.13;;;7.37;;
79687;SDS011;69155;49.464;2.108;2024-01-25T08:39:30;16.10;;;7.27;;
79687;SDS011;69155;49.464;2.108;2024-01-25T08:41:55;12.67;;;7.07;;
79687;SDS011;69155;49.464;2.108;2024-01-25T08:44:25;15.57;;;7.43;;
79687;SDS011;69155;49.464;2.108;2024-01-25T08:46:50;12.70;;;6.47;;
79687;SDS011;69155;49.464;2.108;2024-01-25T08:49:15;13.37;;;7.73;;
79687;SDS011;69155;49.464;2.108;2024-01-25T08:51:41;11.20;;;6.72;;
79687;SDS011;69155;49.464;2.108;2024-01-25T08:54:09;12.75;;;5.70;;
79687;SDS011;69155;49.464;2.108;2024-01-25T08:56:34;10.07;;;5.53;;
79687;SDS011;69155;49.464;2.108;2024-01-25T08:58:59;12.03;;;5.60;;
79687;SDS011;69155;49.464;2.108;2024-01-25T09:01:24;12.17;;;5.27;;
79687;SDS011;69155;49.464;2.108;2024-01-25T09:03:50;14.80;;;5.97;;
79687;SDS011;69155;49.464;2.108;2024-01-25T09:06:15;12.10;;;5.97;;
79687;SDS011;69155;49.464;2.108;2024-01-25T09:08:41;18.38;;;6.50;;
79687;SDS011;69155;49.464;2.108;2024-01-25T09:11:06;16.30;;;6.63;;
79687;SDS011;69155;49.464;2.108;2024-01-25T09:13:31;12.30;;;5.37;;
79687;SDS011;69155;49.464;2.108;2024-01-25T09:15:57;17.00;;;6.32;;
79687;SDS011;69155;49.464;2.108;2024-01-25T09:18:22;11.93;;;5.57;;
79687;SDS011;69155;49.464;2.108;2024-01-25T09:20:47;15.20;;;6.53;;
79687;SDS011;69155;49.464;2.108;2024-01-25T09:23:15;19.25;;;7.18;;
79687;SDS011;69155;49.464;2.108;2024-01-25T09:25:42;16.77;;;6.13;;
79687;SDS011;69155;49.464;2.108;2024-01-25T09:28:07;14.20;;;5.97;;
79687;SDS011;69155;49.464;2.108;2024-01-25T09:30:32;19.02;;;6.60;;
79687;SDS011;69155;49.464;2.108;2024-01-25T09:32:58;17.93;;;6.93;;
79687;SDS011;69155;49.464;2.108;2024-01-25T09:35:23;14.23;;;6.23;;
79687;SDS011;69155;49.464;2.108;2024-01-25T09:37:48;16.93;;;6.37;;
79687;SDS011;69155;49.464;2.108;2024-01-25T09:40:17;11.23;;;6.13;;
79687;SDS011;69155;49.464;2.108;2024-01-25T09:42:42;22.90;;;7.10;;
79687;SDS011;69155;49.464;2.108;2024-01-25T09:45:08;14.68;;;6.60;;
79687;SDS011;69155;49.464;2.108;2024-01-25T09:47:36;15.35;;;6.30;;
79687;SDS011;69155;49.464;2.108;2024-01-25T09:50:01;15.20;;;6.83;;
79687;SDS011;69155;49.464;2.108;2024-01-25T09:52:26;16.97;;;6.20;;
79687;SDS011;69155;49.464;2.108;2024-01-25T09:54:52;15.60;;;6.90;;
79687;SDS011;69155;49.464;2.108;2024-01-25T09:57:18;14.32;;;5.57;;
79687;SDS011;69155;49.464;2.108;2024-01-25T09:59:46;12.38;;;5.60;;
79687;SDS011;69155;49.464;2.108;2024-01-25T10:02:14;10.48;;;5.95;;
79687;SDS011;69155;49.464;2.108;2024-01-25T10:04:40;12.18;;;5.70;;
79687;SDS011;69155;49.464;2.108;2024-01-25T10:07:05;18.17;;;6.27;;
79687;SDS011;69155;49.464;2.108;2024-01-25T10:09:40;14.13;;;5.90;;
79687;SDS011;69155;49.464;2.108;2024-01-25T10:12:05;16.00;;;6.15;;
79687;SDS011;69155;49.464;2.108;2024-01-25T10:14:31;11.52;;;6.25;;
79687;SDS011;69155;49.464;2.108;2024-01-25T10:16:57;16.30;;;5.93;;
79687;SDS011;69155;49.464;2.108;2024-01-25T10:19:22;15.52;;;5.53;;
79687;SDS011;69155;49.464;2.108;2024-01-25T10:21:48;7.90;;;4.93;;
79687;SDS011;69155;49.464;2.108;2024-01-25T10:24:13;10.23;;;4.73;;
79687;SDS011;69155;49.464;2.108;2024-01-25T10:26:40;7.45;;;4.85;;
79687;SDS011;69155;49.464;2.108;2024-01-25T10:29:08;11.95;;;5.38;;
79687;SDS011;69155;49.464;2.108;2024-01-25T10:31:36;12.48;;;5.15;;
79687;SDS011;69155;49.464;2.108;2024-01-25T10:34:06;13.38;;;4.90;;
79687;SDS011;69155;49.464;2.108;2024-01-25T10:36:32;18.08;;;5.75;;
79687;SDS011;69155;49.464;2.108;2024-01-25T10:38:57;16.83;;;6.60;;
79687;SDS011;69155;49.464;2.108;2024-01-25T10:41:30;15.07;;;4.28;;
79687;SDS011;69155;49.464;2.108;2024-01-25T10:43:56;13.02;;;4.32;;
79687;SDS011;69155;49.464;2.108;2024-01-25T10:46:21;17.67;;;5.50;;
79687;SDS011;69155;49.464;2.108;2024-01-25T10:48:48;14.35;;;5.03;;
79687;SDS011;69155;49.464;2.108;2024-01-25T10:51:13;8.63;;;3.40;;
79687;SDS011;69155;49.464;2.108;2024-01-25T10:53:43;7.38;;;3.33;;
79687;SDS011;69155;49.464;2.108;2024-01-25T10:56:08;6.97;;;2.60;;
79687;SDS011;69155;49.464;2.108;2024-01-25T10:58:34;12.00;;;4.82;;
79687;SDS011;69155;49.464;2.108;2024-01-25T11:01:00;9.00;;;4.63;;
79687;SDS011;69155;49.464;2.108;2024-01-25T11:03:26;13.40;;;4.05;;
79687;SDS011;69155;49.464;2.108;2024-01-25T11:05:54;11.00;;;3.47;;
79687;SDS011;69155;49.464;2.108;2024-01-25T11:08:19;11.38;;;4.05;;
79687;SDS011;69155;49.464;2.108;2024-01-25T11:10:51;7.70;;;3.40;;
79687;SDS011;69155;49.464;2.108;2024-01-25T11:13:26;9.52;;;3.55;;
79687;SDS011;69155;49.464;2.108;2024-01-25T11:15:52;12.45;;;3.63;;
79687;SDS011;69155;49.464;2.108;2024-01-25T11:18:17;16.30;;;4.90;;
79687;SDS011;69155;49.464;2.108;2024-01-25T11:20:42;9.67;;;3.63;;
79687;SDS011;69155;49.464;2.108;2024-01-25T11:23:11;22.23;;;4.05;;
79687;SDS011;69155;49.464;2.108;2024-01-25T11:25:39;13.82;;;2.90;;
79687;SDS011;69155;49.464;2.108;2024-01-25T11:28:04;9.73;;;2.97;;
79687;SDS011;69155;49.464;2.108;2024-01-25T11:30:31;12.05;;;3.30;;
79687;SDS011;69155;49.464;2.108;2024-01-25T11:32:57;11.70;;;3.30;;
79687;SDS011;69155;49.464;2.108;2024-01-25T11:35:22;9.23;;;3.13;;
79687;SDS011;69155;49.464;2.108;2024-01-25T11:37:48;6.97;;;2.75;;
79687;SDS011;69155;49.464;2.108;2024-01-25T11:40:16;7.43;;;3.00;;
79687;SDS011;69155;49.464;2.108;2024-01-25T11:42:50;4.57;;;2.60;;
79687;SDS011;69155;49.464;2.108;2024-01-25T11:45:16;9.43;;;3.13;;
79687;SDS011;69155;49.464;2.108;2024-01-25T11:47:42;7.50;;;2.78;;
79687;SDS011;69155;49.464;2.108;2024-01-25T11:50:08;10.73;;;3.40;;
79687;SDS011;69155;49.464;2.108;2024-01-25T11:52:34;10.93;;;4.60;;
79687;SDS011;69155;49.464;2.108;2024-01-25T11:55:02;6.90;;;3.10;;
79687;SDS011;69155;49.464;2.108;2024-01-25T11:57:29;7.53;;;3.25;;
79687;SDS011;69155;49.464;2.108;2024-01-25T11:59:55;10.93;;;3.42;;
79687;SDS011;69155;49.464;2.108;2024-01-25T12:02:20;6.45;;;3.13;;
79687;SDS011;69155;49.464;2.108;2024-01-25T12:04:46;9.57;;;3.77;;
79687;SDS011;69155;49.464;2.108;2024-01-25T12:07:12;10.48;;;3.10;;
79687;SDS011;69155;49.464;2.108;2024-01-25T12:09:37;12.83;;;3.93;;
79687;SDS011;69155;49.464;2.108;2024-01-25T12:12:03;5.23;;;3.17;;
79687;SDS011;69155;49.464;2.108;2024-01-25T12:14:30;5.32;;;3.03;;
79687;SDS011;69155;49.464;2.108;2024-01-25T12:16:55;8.37;;;3.43;;
79687;SDS011;69155;49.464;2.108;2024-01-25T12:19:20;9.10;;;3.20;;
79687;SDS011;69155;49.464;2.108;2024-01-25T12:21:46;3.97;;;2.53;;
79687;SDS011;69155;49.464;2.108;2024-01-25T12:24:12;5.82;;;2.42;;
79687;SDS011;69155;49.464;2.108;2024-01-25T12:26:37;6.90;;;3.17;;
79687;SDS011;69155;49.464;2.108;2024-01-25T12:29:02;6.23;;;2.90;;
79687;SDS011;69155;49.464;2.108;2024-01-25T12:31:28;6.57;;;2.33;;
79687;SDS011;69155;49.464;2.108;2024-01-25T12:33:53;8.10;;;3.37;;
79687;SDS011;69155;49.464;2.108;2024-01-25T12:36:18;10.60;;;4.00;;
79687;SDS011;69155;49.464;2.108;2024-01-25T12:38:43;13.40;;;3.27;;
79687;SDS011;69155;49.464;2.108;2024-01-25T12:41:09;8.20;;;2.70;;
79687;SDS011;69155;49.464;2.108;2024-01-25T12:43:34;3.75;;;2.45;;
79687;SDS011;69155;49.464;2.108;2024-01-25T12:45:59;11.27;;;2.73;;
79687;SDS011;69155;49.464;2.108;2024-01-25T12:48:25;8.23;;;3.33;;
79687;SDS011;69155;49.464;2.108;2024-01-25T12:50:58;14.47;;;3.37;;
79687;SDS011;69155;49.464;2.108;2024-01-25T12:53:24;7.90;;;2.38;;
79687;SDS011;69155;49.464;2.108;2024-01-25T12:55:49;9.93;;;3.35;;
79687;SDS011;69155;49.464;2.108;2024-01-25T12:58:14;6.60;;;2.67;;
79687;SDS011;69155;49.464;2.108;2024-01-25T13:00:40;2.90;;;1.87;;
79687;SDS011;69155;49.464;2.108;2024-01-25T13:03:05;3.37;;;1.90;;
79687;SDS011;69155;49.464;2.108;2024-01-25T13:05:31;4.10;;;2.10;;
79687;SDS011;69155;49.464;2.108;2024-01-25T13:07:59;2.88;;;1.85;;
79687;SDS011;69155;49.464;2.108;2024-01-25T13:10:24;11.05;;;2.63;;
79687;SDS011;69155;49.464;2.108;2024-01-25T13:12:50;5.13;;;2.40;;
79687;SDS011;69155;49.464;2.108;2024-01-25T13:15:15;5.70;;;2.33;;
79687;SDS011;69155;49.464;2.108;2024-01-25T13:17:41;4.65;;;2.10;;
79687;SDS011;69155;49.464;2.108;2024-01-25T13:20:06;10.70;;;2.33;;
79687;SDS011;69155;49.464;2.108;2024-01-25T13:22:32;6.72;;;2.75;;
79687;SDS011;69155;49.464;2.108;2024-01-25T13:24:58;4.97;;;2.28;;
79687;SDS011;69155;49.464;2.108;2024-01-25T13:27:24;5.88;;;2.00;;
79687;SDS011;69155;49.464;2.108;2024-01-25T13:29:49;3.63;;;2.07;;
79687;SDS011;69155;49.464;2.108;2024-01-25T13:32:14;9.07;;;2.50;;
79687;SDS011;69155;49.464;2.108;2024-01-25T13:34:39;4.07;;;1.93;;
79687;SDS011;69155;49.464;2.108;2024-01-25T13:37:04;5.80;;;2.00;;
79687;SDS011;69155;49.464;2.108;2024-01-25T13:39:30;8.20;;;2.30;;
79687;SDS011;69155;49.464;2.108;2024-01-25T13:41:55;10.83;;;2.33;;
79687;SDS011;69155;49.464;2.108;2024-01-25T13:44:21;5.15;;;2.28;;
79687;SDS011;69155;49.464;2.108;2024-01-25T13:46:46;7.90;;;1.80;;
79687;SDS011;69155;49.464;2.108;2024-01-25T13:49:12;5.23;;;2.47;;
79687;SDS011;69155;49.464;2.108;2024-01-25T13:51:37;3.87;;;1.73;;
79687;SDS011;69155;49.464;2.108;2024-01-25T13:54:02;3.23;;;1.90;;
79687;SDS011;69155;49.464;2.108;2024-01-25T13:56:27;10.70;;;2.38;;
79687;SDS011;69155;49.464;2.108;2024-01-25T13:58:53;6.80;;;2.20;;
79687;SDS011;69155;49.464;2.108;2024-01-25T14:01:19;5.13;;;2.20;;
79687;SDS011;69155;49.464;2.108;2024-01-25T14:03:44;4.72;;;1.85;;
79687;SDS011;69155;49.464;2.108;2024-01-25T14:06:09;8.90;;;2.40;;
79687;SDS011;69155;49.464;2.108;2024-01-25T14:08:35;3.93;;;2.27;;
79687;SDS011;69155;49.464;2.108;2024-01-25T14:11:00;8.68;;;1.98;;
79687;SDS011;69155;49.464;2.108;2024-01-25T14:13:26;5.60;;;2.40;;
79687;SDS011;69155;49.464;2.108;2024-01-25T14:15:51;7.17;;;2.00;;
79687;SDS011;69155;49.464;2.108;2024-01-25T14:18:16;5.57;;;2.37;;
79687;SDS011;69155;49.464;2.108;2024-01-25T14:20:42;4.93;;;2.13;;
79687;SDS011;69155;49.464;2.108;2024-01-25T14:23:07;10.77;;;2.70;;
79687;SDS011;69155;49.464;2.108;2024-01-25T14:25:32;5.87;;;2.10;;
79687;SDS011;69155;49.464;2.108;2024-01-25T14:27:57;7.20;;;2.30;;
79687;SDS011;69155;49.464;2.108;2024-01-25T14:30:23;7.97;;;2.38;;
79687;SDS011;69155;49.464;2.108;2024-01-25T14:32:48;3.30;;;1.70;;
79687;SDS011;69155;49.464;2.108;2024-01-25T14:35:13;4.23;;;2.40;;
79687;SDS011;69155;49.464;2.108;2024-01-25T14:37:38;7.40;;;2.33;;
79687;SDS011;69155;49.464;2.108;2024-01-25T14:40:04;9.03;;;3.03;;
79687;SDS011;69155;49.464;2.108;2024-01-25T14:42:29;3.13;;;1.90;;
79687;SDS011;69155;49.464;2.108;2024-01-25T14:44:55;3.47;;;2.00;;
79687;SDS011;69155;49.464;2.108;2024-01-25T14:47:20;8.47;;;2.20;;
79687;SDS011;69155;49.464;2.108;2024-01-25T14:49:48;4.60;;;2.35;;
79687;SDS011;69155;49.464;2.108;2024-01-25T14:52:13;3.42;;;2.05;;